sensor_id;sensor_type;location;lat;lon;timestamp;P1;durP1;ratioP1;P2;durP2;ratioP2
80127;SDS011;69440;52.118;5.408;2023-08-21T00:00:46;3.33;;;1.30;;
80127;SDS011;69440;52.118;5.408;2023-08-21T00:03:13;4.57;;;1.35;;
80127;SDS011;69440;52.118;5.408;2023-08-21T00:05:40;4.53;;;1.27;;
80127;SDS011;69440;52.118;5.408;2023-08-21T00:08:07;2.55;;;1.15;;
80127;SDS011;69440;52.118;5.408;2023-08-21T00:10:36;2.47;;;1.20;;
80127;SDS011;69440;52.118;5.408;2023-08-21T00:13:04;3.08;;;1.45;;
80127;SDS011;69440;52.118;5.408;2023-08-21T00:15:31;4.32;;;1.40;;
80127;SDS011;69440;52.118;5.408;2023-08-21T00:17:57;2.90;;;1.23;;
80127;SDS011;69440;52.118;5.408;2023-08-21T00:20:24;2.65;;;1.20;;
80127;SDS011;69440;52.118;5.408;2023-08-21T00:22:50;5.97;;;1.17;;
80127;SDS011;69440;52.118;5.408;2023-08-21T00:25:17;3.70;;;1.30;;
80127;SDS011;69440;52.118;5.408;2023-08-21T00:27:43;5.32;;;1.40;;
80127;SDS011;69440;52.118;5.408;2023-08-21T00:30:10;6.55;;;1.42;;
80127;SDS011;69440;52.118;5.408;2023-08-21T00:32:37;5.93;;;1.85;;
80127;SDS011;69440;52.118;5.408;2023-08-21T00:35:04;2.90;;;1.30;;
80127;SDS011;69440;52.118;5.408;2023-08-21T00:37:31;2.38;;;1.00;;
80127;SDS011;69440;52.118;5.408;2023-08-21T00:39:57;3.25;;;1.33;;
80127;SDS011;69440;52.118;5.408;2023-08-21T00:42:24;5.78;;;1.40;;
80127;SDS011;69440;52.118;5.408;2023-08-21T00:44:50;4.00;;;1.70;;
80127;SDS011;69440;52.118;5.408;2023-08-21T00:47:17;4.45;;;1.38;;
80127;SDS011;69440;52.118;5.408;2023-08-21T00:49:43;5.30;;;1.48;;
80127;SDS011;69440;52.118;5.408;2023-08-21T00:52:10;4.38;;;1.60;;
80127;SDS011;69440;52.118;5.408;2023-08-21T00:54:40;3.25;;;1.50;;
80127;SDS011;69440;52.118;5.408;2023-08-21T00:57:06;5.05;;;1.70;;
80127;SDS011;69440;52.118;5.408;2023-08-21T00:59:33;3.70;;;1.30;;
80127;SDS011;69440;52.118;5.408;2023-08-21T01:02:00;6.72;;;1.90;;
80127;SDS011;69440;52.118;5.408;2023-08-21T01:04:26;3.50;;;1.60;;
80127;SDS011;69440;52.118;5.408;2023-08-21T01:06:53;3.85;;;1.20;;
80127;SDS011;69440;52.118;5.408;2023-08-21T01:12:03;7.45;;;1.90;;
80127;SDS011;69440;52.118;5.408;2023-08-21T01:14:37;4.28;;;1.42;;
80127;SDS011;69440;52.118;5.408;2023-08-21T01:17:23;4.15;;;1.40;;
80127;SDS011;69440;52.118;5.408;2023-08-21T01:19:50;3.42;;;1.60;;
80127;SDS011;69440;52.118;5.408;2023-08-21T01:22:18;4.53;;;1.35;;
80127;SDS011;69440;52.118;5.408;2023-08-21T01:24:44;4.22;;;1.45;;
80127;SDS011;69440;52.118;5.408;2023-08-21T01:27:11;5.70;;;1.40;;
80127;SDS011;69440;52.118;5.408;2023-08-21T01:29:39;4.47;;;1.45;;
80127;SDS011;69440;52.118;5.408;2023-08-21T01:32:07;3.08;;;1.40;;
80127;SDS011;69440;52.118;5.408;2023-08-21T01:34:40;4.15;;;1.70;;
80127;SDS011;69440;52.118;5.408;2023-08-21T01:37:08;3.33;;;1.30;;
80127;SDS011;69440;52.118;5.408;2023-08-21T01:39:34;3.95;;;1.27;;
80127;SDS011;69440;52.118;5.408;2023-08-21T01:42:01;4.65;;;1.58;;
80127;SDS011;69440;52.118;5.408;2023-08-21T01:44:31;5.32;;;1.52;;
80127;SDS011;69440;52.118;5.408;2023-08-21T01:46:57;3.45;;;1.40;;
80127;SDS011;69440;52.118;5.408;2023-08-21T01:49:24;3.60;;;1.65;;
80127;SDS011;69440;52.118;5.408;2023-08-21T01:51:50;4.28;;;1.60;;
80127;SDS011;69440;52.118;5.408;2023-08-21T01:54:17;4.60;;;1.50;;
80127;SDS011;69440;52.118;5.408;2023-08-21T01:56:43;4.82;;;1.55;;
80127;SDS011;69440;52.118;5.408;2023-08-21T01:59:10;4.80;;;1.45;;
80127;SDS011;69440;52.118;5.408;2023-08-21T02:01:36;4.00;;;1.70;;
80127;SDS011;69440;52.118;5.408;2023-08-21T02:04:03;6.45;;;1.45;;
80127;SDS011;69440;52.118;5.408;2023-08-21T02:06:29;4.50;;;1.65;;
80127;SDS011;69440;52.118;5.408;2023-08-21T02:08:56;3.08;;;1.50;;
80127;SDS011;69440;52.118;5.408;2023-08-21T02:11:22;4.97;;;1.90;;
80127;SDS011;69440;52.118;5.408;2023-08-21T02:13:49;5.88;;;1.77;;
80127;SDS011;69440;52.118;5.408;2023-08-21T02:16:15;3.28;;;1.60;;
80127;SDS011;69440;52.118;5.408;2023-08-21T02:18:42;5.05;;;1.70;;
80127;SDS011;69440;52.118;5.408;2023-08-21T02:21:08;4.75;;;1.70;;
80127;SDS011;69440;52.118;5.408;2023-08-21T02:23:35;4.43;;;1.50;;
80127;SDS011;69440;52.118;5.408;2023-08-21T02:26:01;4.15;;;2.00;;
80127;SDS011;69440;52.118;5.408;2023-08-21T02:28:28;5.22;;;2.03;;
80127;SDS011;69440;52.118;5.408;2023-08-21T02:30:54;4.20;;;1.58;;
80127;SDS011;69440;52.118;5.408;2023-08-21T02:33:20;5.45;;;1.50;;
80127;SDS011;69440;52.118;5.408;2023-08-21T02:35:47;4.40;;;1.30;;
80127;SDS011;69440;52.118;5.408;2023-08-21T02:38:13;3.63;;;1.60;;
80127;SDS011;69440;52.118;5.408;2023-08-21T02:40:40;4.15;;;1.42;;
80127;SDS011;69440;52.118;5.408;2023-08-21T02:43:06;3.85;;;1.45;;
80127;SDS011;69440;52.118;5.408;2023-08-21T02:45:33;3.35;;;1.52;;
80127;SDS011;69440;52.118;5.408;2023-08-21T02:47:59;5.18;;;1.70;;
80127;SDS011;69440;52.118;5.408;2023-08-21T02:50:26;4.30;;;1.65;;
80127;SDS011;69440;52.118;5.408;2023-08-21T02:52:52;4.95;;;1.65;;
80127;SDS011;69440;52.118;5.408;2023-08-21T02:55:19;4.18;;;1.70;;
80127;SDS011;69440;52.118;5.408;2023-08-21T02:57:46;3.80;;;1.60;;
80127;SDS011;69440;52.118;5.408;2023-08-21T03:00:13;4.90;;;1.90;;
80127;SDS011;69440;52.118;5.408;2023-08-21T03:02:40;4.18;;;1.73;;
80127;SDS011;69440;52.118;5.408;2023-08-21T03:05:10;4.25;;;1.80;;
80127;SDS011;69440;52.118;5.408;2023-08-21T03:07:37;4.15;;;1.60;;
80127;SDS011;69440;52.118;5.408;2023-08-21T03:10:05;3.88;;;1.77;;
80127;SDS011;69440;52.118;5.408;2023-08-21T03:12:33;4.43;;;1.67;;
80127;SDS011;69440;52.118;5.408;2023-08-21T03:15:00;5.95;;;1.88;;
80127;SDS011;69440;52.118;5.408;2023-08-21T03:17:26;3.05;;;1.25;;
80127;SDS011;69440;52.118;5.408;2023-08-21T03:19:53;3.30;;;1.25;;
80127;SDS011;69440;52.118;5.408;2023-08-21T03:22:20;3.05;;;1.30;;
80127;SDS011;69440;52.118;5.408;2023-08-21T03:24:46;3.92;;;1.52;;
80127;SDS011;69440;52.118;5.408;2023-08-21T03:27:14;6.00;;;1.70;;
80127;SDS011;69440;52.118;5.408;2023-08-21T03:29:43;4.53;;;1.83;;
80127;SDS011;69440;52.118;5.408;2023-08-21T03:32:17;3.13;;;1.45;;
80127;SDS011;69440;52.118;5.408;2023-08-21T03:34:44;5.03;;;1.70;;
80127;SDS011;69440;52.118;5.408;2023-08-21T03:37:11;7.13;;;1.70;;
80127;SDS011;69440;52.118;5.408;2023-08-21T03:39:37;5.15;;;1.60;;
80127;SDS011;69440;52.118;5.408;2023-08-21T03:42:05;5.47;;;1.83;;
80127;SDS011;69440;52.118;5.408;2023-08-21T03:44:31;4.38;;;1.60;;
80127;SDS011;69440;52.118;5.408;2023-08-21T03:46:58;4.05;;;1.50;;
80127;SDS011;69440;52.118;5.408;2023-08-21T03:49:24;6.07;;;1.42;;
80127;SDS011;69440;52.118;5.408;2023-08-21T03:51:51;3.92;;;1.50;;
80127;SDS011;69440;52.118;5.408;2023-08-21T03:54:17;6.95;;;1.67;;
80127;SDS011;69440;52.118;5.408;2023-08-21T03:56:44;5.68;;;1.80;;
80127;SDS011;69440;52.118;5.408;2023-08-21T03:59:10;5.70;;;1.77;;
80127;SDS011;69440;52.118;5.408;2023-08-21T04:01:37;4.10;;;1.60;;
80127;SDS011;69440;52.118;5.408;2023-08-21T04:04:03;3.67;;;1.50;;
80127;SDS011;69440;52.118;5.408;2023-08-21T04:06:30;3.22;;;1.35;;
80127;SDS011;69440;52.118;5.408;2023-08-21T04:08:56;2.92;;;1.52;;
80127;SDS011;69440;52.118;5.408;2023-08-21T04:11:23;4.07;;;1.60;;
80127;SDS011;69440;52.118;5.408;2023-08-21T04:13:49;3.05;;;1.52;;
80127;SDS011;69440;52.118;5.408;2023-08-21T04:16:16;3.85;;;1.63;;
80127;SDS011;69440;52.118;5.408;2023-08-21T04:18:44;4.32;;;1.60;;
80127;SDS011;69440;52.118;5.408;2023-08-21T04:21:10;3.80;;;1.90;;
80127;SDS011;69440;52.118;5.408;2023-08-21T04:23:37;3.65;;;1.60;;
80127;SDS011;69440;52.118;5.408;2023-08-21T04:26:04;6.63;;;2.10;;
80127;SDS011;69440;52.118;5.408;2023-08-21T04:28:31;6.88;;;1.70;;
80127;SDS011;69440;52.118;5.408;2023-08-21T04:30:58;3.55;;;1.75;;
80127;SDS011;69440;52.118;5.408;2023-08-21T04:33:25;3.67;;;1.65;;
80127;SDS011;69440;52.118;5.408;2023-08-21T04:35:54;5.38;;;1.95;;
80127;SDS011;69440;52.118;5.408;2023-08-21T04:38:20;5.70;;;1.70;;
80127;SDS011;69440;52.118;5.408;2023-08-21T04:40:47;2.55;;;1.40;;
80127;SDS011;69440;52.118;5.408;2023-08-21T04:43:13;2.47;;;1.45;;
80127;SDS011;69440;52.118;5.408;2023-08-21T04:45:49;4.05;;;1.80;;
80127;SDS011;69440;52.118;5.408;2023-08-21T04:48:17;4.45;;;1.52;;
80127;SDS011;69440;52.118;5.408;2023-08-21T04:50:44;4.45;;;1.60;;
80127;SDS011;69440;52.118;5.408;2023-08-21T04:53:11;2.70;;;1.63;;
80127;SDS011;69440;52.118;5.408;2023-08-21T04:55:39;5.63;;;1.52;;
80127;SDS011;69440;52.118;5.408;2023-08-21T04:58:07;3.90;;;1.90;;
80127;SDS011;69440;52.118;5.408;2023-08-21T05:00:33;4.60;;;1.75;;
80127;SDS011;69440;52.118;5.408;2023-08-21T05:03:00;5.30;;;2.00;;
80127;SDS011;69440;52.118;5.408;2023-08-21T05:05:27;3.83;;;1.95;;
80127;SDS011;69440;52.118;5.408;2023-08-21T05:07:53;6.30;;;2.50;;
80127;SDS011;69440;52.118;5.408;2023-08-21T05:10:20;4.72;;;1.70;;
80127;SDS011;69440;52.118;5.408;2023-08-21T05:12:46;4.45;;;1.60;;
80127;SDS011;69440;52.118;5.408;2023-08-21T05:15:13;6.53;;;2.20;;
80127;SDS011;69440;52.118;5.408;2023-08-21T05:17:40;4.38;;;2.00;;
80127;SDS011;69440;52.118;5.408;2023-08-21T05:20:07;4.05;;;1.67;;
80127;SDS011;69440;52.118;5.408;2023-08-21T05:22:34;7.47;;;1.80;;
80127;SDS011;69440;52.118;5.408;2023-08-21T05:25:01;4.25;;;1.85;;
80127;SDS011;69440;52.118;5.408;2023-08-21T05:27:27;3.90;;;1.70;;
80127;SDS011;69440;52.118;5.408;2023-08-21T05:29:54;3.50;;;1.52;;
80127;SDS011;69440;52.118;5.408;2023-08-21T05:32:20;4.30;;;1.80;;
80127;SDS011;69440;52.118;5.408;2023-08-21T05:34:47;4.28;;;1.88;;
80127;SDS011;69440;52.118;5.408;2023-08-21T05:37:13;4.93;;;1.80;;
80127;SDS011;69440;52.118;5.408;2023-08-21T05:39:40;6.72;;;1.65;;
80127;SDS011;69440;52.118;5.408;2023-08-21T05:42:06;4.35;;;1.67;;
80127;SDS011;69440;52.118;5.408;2023-08-21T05:44:33;4.00;;;1.52;;
80127;SDS011;69440;52.118;5.408;2023-08-21T05:46:59;3.90;;;2.15;;
80127;SDS011;69440;52.118;5.408;2023-08-21T05:49:26;3.63;;;2.10;;
80127;SDS011;69440;52.118;5.408;2023-08-21T05:51:52;3.47;;;1.80;;
80127;SDS011;69440;52.118;5.408;2023-08-21T05:54:19;5.13;;;2.00;;
80127;SDS011;69440;52.118;5.408;2023-08-21T05:56:46;4.72;;;1.90;;
80127;SDS011;69440;52.118;5.408;2023-08-21T05:59:12;4.28;;;1.83;;
80127;SDS011;69440;52.118;5.408;2023-08-21T06:01:53;5.93;;;2.25;;
80127;SDS011;69440;52.118;5.408;2023-08-21T06:04:19;5.43;;;2.13;;
80127;SDS011;69440;52.118;5.408;2023-08-21T06:06:46;10.38;;;2.40;;
80127;SDS011;69440;52.118;5.408;2023-08-21T06:09:12;3.22;;;2.08;;
80127;SDS011;69440;52.118;5.408;2023-08-21T06:11:39;6.43;;;2.17;;
80127;SDS011;69440;52.118;5.408;2023-08-21T06:14:05;4.32;;;2.22;;
80127;SDS011;69440;52.118;5.408;2023-08-21T06:16:32;6.30;;;2.10;;
80127;SDS011;69440;52.118;5.408;2023-08-21T06:18:58;4.72;;;2.20;;
80127;SDS011;69440;52.118;5.408;2023-08-21T06:21:25;5.45;;;2.45;;
80127;SDS011;69440;52.118;5.408;2023-08-21T06:23:51;7.47;;;2.80;;
80127;SDS011;69440;52.118;5.408;2023-08-21T06:26:17;6.10;;;2.80;;
80127;SDS011;69440;52.118;5.408;2023-08-21T06:28:44;7.40;;;3.42;;
80127;SDS011;69440;52.118;5.408;2023-08-21T06:31:10;6.18;;;3.10;;
80127;SDS011;69440;52.118;5.408;2023-08-21T06:33:37;5.63;;;2.80;;
80127;SDS011;69440;52.118;5.408;2023-08-21T06:36:03;7.57;;;3.05;;
80127;SDS011;69440;52.118;5.408;2023-08-21T06:38:30;9.35;;;3.17;;
80127;SDS011;69440;52.118;5.408;2023-08-21T06:40:56;6.03;;;2.30;;
80127;SDS011;69440;52.118;5.408;2023-08-21T06:43:23;5.80;;;2.65;;
80127;SDS011;69440;52.118;5.408;2023-08-21T06:45:49;5.43;;;2.35;;
80127;SDS011;69440;52.118;5.408;2023-08-21T06:48:16;6.93;;;2.28;;
80127;SDS011;69440;52.118;5.408;2023-08-21T06:50:42;6.47;;;2.50;;
80127;SDS011;69440;52.118;5.408;2023-08-21T06:53:09;6.07;;;2.75;;
80127;SDS011;69440;52.118;5.408;2023-08-21T06:55:35;5.82;;;2.47;;
80127;SDS011;69440;52.118;5.408;2023-08-21T06:58:02;8.18;;;3.28;;
80127;SDS011;69440;52.118;5.408;2023-08-21T07:00:29;6.32;;;3.22;;
80127;SDS011;69440;52.118;5.408;2023-08-21T07:02:55;7.03;;;3.28;;
80127;SDS011;69440;52.118;5.408;2023-08-21T07:05:22;7.57;;;2.83;;
80127;SDS011;69440;52.118;5.408;2023-08-21T07:07:48;5.43;;;2.60;;
80127;SDS011;69440;52.118;5.408;2023-08-21T07:10:15;7.82;;;2.60;;
80127;SDS011;69440;52.118;5.408;2023-08-21T07:12:41;6.85;;;2.65;;
80127;SDS011;69440;52.118;5.408;2023-08-21T07:15:08;8.85;;;2.75;;
80127;SDS011;69440;52.118;5.408;2023-08-21T07:17:35;5.53;;;2.65;;
80127;SDS011;69440;52.118;5.408;2023-08-21T07:20:01;5.55;;;2.35;;
80127;SDS011;69440;52.118;5.408;2023-08-21T07:22:30;11.02;;;2.60;;
80127;SDS011;69440;52.118;5.408;2023-08-21T07:24:56;8.48;;;3.15;;
80127;SDS011;69440;52.118;5.408;2023-08-21T07:27:23;7.57;;;2.83;;
80127;SDS011;69440;52.118;5.408;2023-08-21T07:29:49;6.13;;;2.47;;
80127;SDS011;69440;52.118;5.408;2023-08-21T07:32:16;8.05;;;1.90;;
80127;SDS011;69440;52.118;5.408;2023-08-21T07:34:42;7.18;;;2.20;;
80127;SDS011;69440;52.118;5.408;2023-08-21T07:37:09;3.95;;;2.10;;
80127;SDS011;69440;52.118;5.408;2023-08-21T07:39:35;6.07;;;1.83;;
80127;SDS011;69440;52.118;5.408;2023-08-21T07:42:02;4.03;;;1.98;;
80127;SDS011;69440;52.118;5.408;2023-08-21T07:44:28;4.63;;;2.30;;
80127;SDS011;69440;52.118;5.408;2023-08-21T07:46:55;6.70;;;2.65;;
80127;SDS011;69440;52.118;5.408;2023-08-21T07:49:21;7.68;;;2.55;;
80127;SDS011;69440;52.118;5.408;2023-08-21T07:51:48;6.75;;;2.40;;
80127;SDS011;69440;52.118;5.408;2023-08-21T07:54:14;6.53;;;2.38;;
80127;SDS011;69440;52.118;5.408;2023-08-21T07:56:41;8.05;;;2.45;;
80127;SDS011;69440;52.118;5.408;2023-08-21T07:59:07;7.30;;;2.38;;
80127;SDS011;69440;52.118;5.408;2023-08-21T08:01:34;11.35;;;3.40;;
80127;SDS011;69440;52.118;5.408;2023-08-21T08:04:00;4.10;;;1.60;;
80127;SDS011;69440;52.118;5.408;2023-08-21T08:06:27;5.68;;;1.55;;
80127;SDS011;69440;52.118;5.408;2023-08-21T08:08:53;5.57;;;1.48;;
80127;SDS011;69440;52.118;5.408;2023-08-21T08:11:20;5.95;;;1.70;;
80127;SDS011;69440;52.118;5.408;2023-08-21T08:13:46;7.10;;;1.60;;
80127;SDS011;69440;52.118;5.408;2023-08-21T08:16:13;3.85;;;1.30;;
80127;SDS011;69440;52.118;5.408;2023-08-21T08:18:39;6.78;;;2.30;;
80127;SDS011;69440;52.118;5.408;2023-08-21T08:21:06;6.85;;;2.03;;
80127;SDS011;69440;52.118;5.408;2023-08-21T08:23:32;5.32;;;1.48;;
80127;SDS011;69440;52.118;5.408;2023-08-21T08:25:59;5.22;;;1.35;;
80127;SDS011;69440;52.118;5.408;2023-08-21T08:28:25;4.82;;;1.20;;
80127;SDS011;69440;52.118;5.408;2023-08-21T08:30:52;7.55;;;1.50;;
80127;SDS011;69440;52.118;5.408;2023-08-21T08:33:18;8.65;;;1.55;;
80127;SDS011;69440;52.118;5.408;2023-08-21T08:35:45;8.52;;;2.10;;
80127;SDS011;69440;52.118;5.408;2023-08-21T08:38:11;7.75;;;1.83;;
80127;SDS011;69440;52.118;5.408;2023-08-21T08:40:43;4.38;;;1.13;;
80127;SDS011;69440;52.118;5.408;2023-08-21T08:43:12;4.53;;;1.40;;
80127;SDS011;69440;52.118;5.408;2023-08-21T08:45:40;5.65;;;1.45;;
80127;SDS011;69440;52.118;5.408;2023-08-21T08:48:07;6.07;;;1.40;;
80127;SDS011;69440;52.118;5.408;2023-08-21T08:50:34;8.20;;;1.30;;
80127;SDS011;69440;52.118;5.408;2023-08-21T08:53:01;8.05;;;1.00;;
80127;SDS011;69440;52.118;5.408;2023-08-21T08:55:41;4.93;;;1.30;;
80127;SDS011;69440;52.118;5.408;2023-08-21T08:58:08;3.05;;;1.00;;
80127;SDS011;69440;52.118;5.408;2023-08-21T09:00:34;3.85;;;0.85;;
80127;SDS011;69440;52.118;5.408;2023-08-21T09:03:01;4.65;;;1.13;;
80127;SDS011;69440;52.118;5.408;2023-08-21T09:05:27;5.18;;;1.20;;
80127;SDS011;69440;52.118;5.408;2023-08-21T09:08:09;8.20;;;1.10;;
80127;SDS011;69440;52.118;5.408;2023-08-21T09:10:37;4.85;;;1.20;;
80127;SDS011;69440;52.118;5.408;2023-08-21T09:13:11;2.85;;;1.08;;
80127;SDS011;69440;52.118;5.408;2023-08-21T09:15:47;6.25;;;1.52;;
80127;SDS011;69440;52.118;5.408;2023-08-21T09:18:15;5.28;;;1.17;;
80127;SDS011;69440;52.118;5.408;2023-08-21T09:20:42;2.97;;;1.10;;
80127;SDS011;69440;52.118;5.408;2023-08-21T09:23:13;4.78;;;1.23;;
80127;SDS011;69440;52.118;5.408;2023-08-21T09:25:40;5.55;;;1.25;;
80127;SDS011;69440;52.118;5.408;2023-08-21T09:28:08;4.85;;;1.05;;
80127;SDS011;69440;52.118;5.408;2023-08-21T09:30:44;4.80;;;1.02;;
80127;SDS011;69440;52.118;5.408;2023-08-21T09:33:12;4.57;;;1.05;;
80127;SDS011;69440;52.118;5.408;2023-08-21T09:35:39;7.57;;;1.33;;
80127;SDS011;69440;52.118;5.408;2023-08-21T09:38:08;3.13;;;1.00;;
80127;SDS011;69440;52.118;5.408;2023-08-21T09:40:39;6.10;;;1.20;;
80127;SDS011;69440;52.118;5.408;2023-08-21T09:43:08;5.07;;;1.30;;
80127;SDS011;69440;52.118;5.408;2023-08-21T09:45:37;4.65;;;1.10;;
80127;SDS011;69440;52.118;5.408;2023-08-21T09:48:04;4.90;;;1.08;;
80127;SDS011;69440;52.118;5.408;2023-08-21T09:50:31;3.97;;;1.10;;
80127;SDS011;69440;52.118;5.408;2023-08-21T09:52:58;4.07;;;1.08;;
80127;SDS011;69440;52.118;5.408;2023-08-21T09:55:25;4.15;;;1.15;;
80127;SDS011;69440;52.118;5.408;2023-08-21T09:57:56;3.35;;;1.17;;
80127;SDS011;69440;52.118;5.408;2023-08-21T10:00:29;4.25;;;1.10;;
80127;SDS011;69440;52.118;5.408;2023-08-21T10:03:01;5.88;;;1.08;;
80127;SDS011;69440;52.118;5.408;2023-08-21T10:05:33;5.00;;;1.00;;
80127;SDS011;69440;52.118;5.408;2023-08-21T10:08:01;5.65;;;1.60;;
80127;SDS011;69440;52.118;5.408;2023-08-21T10:10:36;5.53;;;1.30;;
80127;SDS011;69440;52.118;5.408;2023-08-21T10:13:04;6.70;;;1.38;;
80127;SDS011;69440;52.118;5.408;2023-08-21T10:15:33;5.22;;;1.30;;
80127;SDS011;69440;52.118;5.408;2023-08-21T10:18:20;3.97;;;1.27;;
80127;SDS011;69440;52.118;5.408;2023-08-21T10:20:51;5.55;;;1.35;;
80127;SDS011;69440;52.118;5.408;2023-08-21T10:23:25;4.07;;;1.17;;
80127;SDS011;69440;52.118;5.408;2023-08-21T10:26:05;4.53;;;1.23;;
80127;SDS011;69440;52.118;5.408;2023-08-21T10:28:52;3.03;;;1.10;;
80127;SDS011;69440;52.118;5.408;2023-08-21T10:31:35;4.28;;;1.10;;
80127;SDS011;69440;52.118;5.408;2023-08-21T10:34:08;2.58;;;0.90;;
80127;SDS011;69440;52.118;5.408;2023-08-21T10:36:40;8.40;;;1.15;;
80127;SDS011;69440;52.118;5.408;2023-08-21T10:42:10;11.57;;;1.60;;
80127;SDS011;69440;52.118;5.408;2023-08-21T10:47:38;6.55;;;1.25;;
80127;SDS011;69440;52.118;5.408;2023-08-21T10:50:07;5.50;;;1.00;;
80127;SDS011;69440;52.118;5.408;2023-08-21T10:52:40;7.55;;;1.85;;
80127;SDS011;69440;52.118;5.408;2023-08-21T10:55:14;6.22;;;1.38;;
80127;SDS011;69440;52.118;5.408;2023-08-21T10:57:42;2.85;;;1.05;;
80127;SDS011;69440;52.118;5.408;2023-08-21T11:00:09;4.50;;;1.30;;
80127;SDS011;69440;52.118;5.408;2023-08-21T11:02:44;4.70;;;1.10;;
80127;SDS011;69440;52.118;5.408;2023-08-21T11:05:12;4.03;;;1.00;;
80127;SDS011;69440;52.118;5.408;2023-08-21T11:07:43;4.55;;;1.20;;
80127;SDS011;69440;52.118;5.408;2023-08-21T11:10:12;4.15;;;1.10;;
80127;SDS011;69440;52.118;5.408;2023-08-21T11:12:50;5.68;;;1.17;;
80127;SDS011;69440;52.118;5.408;2023-08-21T11:15:26;3.42;;;0.80;;
80127;SDS011;69440;52.118;5.408;2023-08-21T11:17:54;3.20;;;0.80;;
80127;SDS011;69440;52.118;5.408;2023-08-21T11:20:21;4.22;;;1.00;;
80127;SDS011;69440;52.118;5.408;2023-08-21T11:22:48;3.22;;;0.90;;
80127;SDS011;69440;52.118;5.408;2023-08-21T11:25:15;3.20;;;0.80;;
80127;SDS011;69440;52.118;5.408;2023-08-21T11:27:44;2.10;;;0.70;;
80127;SDS011;69440;52.118;5.408;2023-08-21T11:30:11;3.35;;;0.80;;
80127;SDS011;69440;52.118;5.408;2023-08-21T11:32:39;4.85;;;0.90;;
80127;SDS011;69440;52.118;5.408;2023-08-21T11:35:08;2.90;;;0.80;;
80127;SDS011;69440;52.118;5.408;2023-08-21T11:37:36;2.63;;;0.70;;
80127;SDS011;69440;52.118;5.408;2023-08-21T11:40:12;3.50;;;0.93;;
80127;SDS011;69440;52.118;5.408;2023-08-21T11:42:40;4.70;;;0.80;;
80127;SDS011;69440;52.118;5.408;2023-08-21T11:45:07;1.52;;;0.80;;
80127;SDS011;69440;52.118;5.408;2023-08-21T11:47:36;2.97;;;0.75;;
80127;SDS011;69440;52.118;5.408;2023-08-21T11:50:04;3.90;;;0.95;;
80127;SDS011;69440;52.118;5.408;2023-08-21T11:52:32;4.18;;;0.80;;
80127;SDS011;69440;52.118;5.408;2023-08-21T11:54:58;2.80;;;0.88;;
80127;SDS011;69440;52.118;5.408;2023-08-21T11:57:25;3.47;;;1.20;;
80127;SDS011;69440;52.118;5.408;2023-08-21T11:59:55;2.78;;;0.88;;
80127;SDS011;69440;52.118;5.408;2023-08-21T12:02:23;2.25;;;0.80;;
80127;SDS011;69440;52.118;5.408;2023-08-21T12:04:52;4.10;;;0.80;;
80127;SDS011;69440;52.118;5.408;2023-08-21T12:07:27;3.55;;;0.95;;
80127;SDS011;69440;52.118;5.408;2023-08-21T12:09:53;2.42;;;0.82;;
80127;SDS011;69440;52.118;5.408;2023-08-21T12:12:20;2.70;;;0.77;;
80127;SDS011;69440;52.118;5.408;2023-08-21T12:14:46;2.40;;;0.88;;
80127;SDS011;69440;52.118;5.408;2023-08-21T12:17:13;2.75;;;0.80;;
80127;SDS011;69440;52.118;5.408;2023-08-21T12:19:39;4.40;;;0.90;;
80127;SDS011;69440;52.118;5.408;2023-08-21T12:22:07;2.85;;;1.00;;
80127;SDS011;69440;52.118;5.408;2023-08-21T12:24:34;3.67;;;0.90;;
80127;SDS011;69440;52.118;5.408;2023-08-21T12:27:03;2.78;;;0.88;;
80127;SDS011;69440;52.118;5.408;2023-08-21T12:29:30;3.38;;;1.00;;
80127;SDS011;69440;52.118;5.408;2023-08-21T12:31:57;2.63;;;0.88;;
80127;SDS011;69440;52.118;5.408;2023-08-21T12:34:23;3.65;;;1.00;;
80127;SDS011;69440;52.118;5.408;2023-08-21T12:36:50;2.15;;;0.90;;
80127;SDS011;69440;52.118;5.408;2023-08-21T12:39:17;3.92;;;1.50;;
80127;SDS011;69440;52.118;5.408;2023-08-21T12:41:44;4.25;;;1.10;;
80127;SDS011;69440;52.118;5.408;2023-08-21T12:44:10;3.55;;;0.95;;
80127;SDS011;69440;52.118;5.408;2023-08-21T12:46:37;3.58;;;1.08;;
80127;SDS011;69440;52.118;5.408;2023-08-21T12:49:04;2.90;;;1.10;;
80127;SDS011;69440;52.118;5.408;2023-08-21T12:51:31;3.05;;;1.00;;
80127;SDS011;69440;52.118;5.408;2023-08-21T12:53:57;3.08;;;0.95;;
80127;SDS011;69440;52.118;5.408;2023-08-21T12:56:24;3.45;;;1.20;;
80127;SDS011;69440;52.118;5.408;2023-08-21T12:58:51;1.98;;;1.10;;
80127;SDS011;69440;52.118;5.408;2023-08-21T13:01:17;3.53;;;1.20;;
80127;SDS011;69440;52.118;5.408;2023-08-21T13:03:47;4.07;;;1.00;;
80127;SDS011;69440;52.118;5.408;2023-08-21T13:06:14;5.45;;;1.13;;
80127;SDS011;69440;52.118;5.408;2023-08-21T13:08:40;5.15;;;1.23;;
80127;SDS011;69440;52.118;5.408;2023-08-21T13:11:07;3.53;;;1.10;;
80127;SDS011;69440;52.118;5.408;2023-08-21T13:13:34;4.70;;;1.20;;
80127;SDS011;69440;52.118;5.408;2023-08-21T13:16:00;2.88;;;1.05;;
80127;SDS011;69440;52.118;5.408;2023-08-21T13:18:27;3.40;;;1.10;;
80127;SDS011;69440;52.118;5.408;2023-08-21T13:20:54;3.58;;;1.23;;
80127;SDS011;69440;52.118;5.408;2023-08-21T13:23:20;4.05;;;1.30;;
80127;SDS011;69440;52.118;5.408;2023-08-21T13:25:47;3.88;;;1.30;;
80127;SDS011;69440;52.118;5.408;2023-08-21T13:28:13;4.03;;;1.30;;
80127;SDS011;69440;52.118;5.408;2023-08-21T13:30:40;3.17;;;1.33;;
80127;SDS011;69440;52.118;5.408;2023-08-21T13:33:06;3.58;;;1.15;;
80127;SDS011;69440;52.118;5.408;2023-08-21T13:35:34;2.92;;;1.17;;
80127;SDS011;69440;52.118;5.408;2023-08-21T13:38:00;2.05;;;1.10;;
80127;SDS011;69440;52.118;5.408;2023-08-21T13:40:27;2.88;;;0.95;;
80127;SDS011;69440;52.118;5.408;2023-08-21T13:42:53;3.45;;;1.05;;
80127;SDS011;69440;52.118;5.408;2023-08-21T13:45:20;3.92;;;1.05;;
80127;SDS011;69440;52.118;5.408;2023-08-21T13:47:47;2.70;;;0.82;;
80127;SDS011;69440;52.118;5.408;2023-08-21T13:50:15;3.70;;;1.00;;
80127;SDS011;69440;52.118;5.408;2023-08-21T13:52:45;4.72;;;1.10;;
80127;SDS011;69440;52.118;5.408;2023-08-21T13:55:13;4.25;;;1.17;;
80127;SDS011;69440;52.118;5.408;2023-08-21T13:57:40;2.22;;;0.85;;
80127;SDS011;69440;52.118;5.408;2023-08-21T14:00:07;2.10;;;0.90;;
80127;SDS011;69440;52.118;5.408;2023-08-21T14:02:38;4.53;;;0.82;;
80127;SDS011;69440;52.118;5.408;2023-08-21T14:05:07;2.55;;;0.95;;
80127;SDS011;69440;52.118;5.408;2023-08-21T14:07:34;4.05;;;0.98;;
80127;SDS011;69440;52.118;5.408;2023-08-21T14:10:02;5.22;;;1.02;;
80127;SDS011;69440;52.118;5.408;2023-08-21T14:12:31;3.60;;;1.10;;
80127;SDS011;69440;52.118;5.408;2023-08-21T14:14:58;4.30;;;0.90;;
80127;SDS011;69440;52.118;5.408;2023-08-21T14:17:26;3.28;;;1.00;;
80127;SDS011;69440;52.118;5.408;2023-08-21T14:19:53;2.83;;;1.10;;
80127;SDS011;69440;52.118;5.408;2023-08-21T14:22:20;5.72;;;1.27;;
80127;SDS011;69440;52.118;5.408;2023-08-21T14:24:47;2.65;;;1.20;;
80127;SDS011;69440;52.118;5.408;2023-08-21T14:27:13;2.92;;;0.88;;
80127;SDS011;69440;52.118;5.408;2023-08-21T14:29:43;4.05;;;0.90;;
80127;SDS011;69440;52.118;5.408;2023-08-21T14:32:10;3.47;;;0.80;;
80127;SDS011;69440;52.118;5.408;2023-08-21T14:34:37;3.13;;;0.90;;
80127;SDS011;69440;52.118;5.408;2023-08-21T14:37:04;2.75;;;1.00;;
80127;SDS011;69440;52.118;5.408;2023-08-21T14:39:31;5.10;;;0.95;;
80127;SDS011;69440;52.118;5.408;2023-08-21T14:41:57;2.50;;;1.08;;
80127;SDS011;69440;52.118;5.408;2023-08-21T14:44:25;3.75;;;0.82;;
80127;SDS011;69440;52.118;5.408;2023-08-21T14:46:52;2.05;;;0.82;;
80127;SDS011;69440;52.118;5.408;2023-08-21T14:49:23;4.75;;;1.05;;
80127;SDS011;69440;52.118;5.408;2023-08-21T14:51:50;1.50;;;0.70;;
80127;SDS011;69440;52.118;5.408;2023-08-21T14:54:16;3.83;;;0.90;;
80127;SDS011;69440;52.118;5.408;2023-08-21T14:56:42;4.63;;;1.65;;
80127;SDS011;69440;52.118;5.408;2023-08-21T14:59:09;3.92;;;0.93;;